aviador You're here:

SAME Decoded Metar

MENDOZA in ARGENTINA
Report Time2018-01-21 07:00:00
UTC Time2018-01-21 08:37:35
Flight Rules Old
WindCalm
Visibility9999 m
Phenomena:N/A
Clouds:Few 040 Hf
Expected CloudBase > 3,200 ft AGL from Temp-Dew spread
CeilingNone
Temp21°C (ISA +11)
Dew Point13°C (60% RH)
QNH1009 hPa
Density Alt3,881 ft
Elevation2,310 ft
Report Wrong Elevation
Raw Report
METAR SAME 210700Z 00000KT 9999 FEW040 21/13 Q1009=

Extra information for SAME:More info

Metar Taf Metar & Taf Last 4 Metars F.Rules Stats Wind Profile Meteogram Temp Stats Airport Information Weather charts Add Link Nearby VenuesMetar ALERT Operation Metar Decoded Social comments